sensor_id;sensor_type;location;lat;lon;timestamp;P1;durP1;ratioP1;P2;durP2;ratioP2
73793;SDS011;62123;52.518;10.528;2022-07-19T00:01:24;6.00;;;3.30;;
73793;SDS011;62123;52.518;10.528;2022-07-19T00:03:50;7.90;;;4.00;;
73793;SDS011;62123;52.518;10.528;2022-07-19T00:06:15;8.60;;;3.60;;
73793;SDS011;62123;52.518;10.528;2022-07-19T00:08:41;6.50;;;3.73;;
73793;SDS011;62123;52.518;10.528;2022-07-19T00:11:07;8.00;;;3.40;;
73793;SDS011;62123;52.518;10.528;2022-07-19T00:13:32;7.88;;;3.35;;
73793;SDS011;62123;52.518;10.528;2022-07-19T00:15:58;9.27;;;2.97;;
73793;SDS011;62123;52.518;10.528;2022-07-19T00:18:23;8.13;;;3.70;;
73793;SDS011;62123;52.518;10.528;2022-07-19T00:20:49;7.60;;;3.60;;
73793;SDS011;62123;52.518;10.528;2022-07-19T00:23:14;7.07;;;3.07;;
73793;SDS011;62123;52.518;10.528;2022-07-19T00:25:40;7.95;;;3.95;;
73793;SDS011;62123;52.518;10.528;2022-07-19T00:28:05;9.03;;;3.50;;
73793;SDS011;62123;52.518;10.528;2022-07-19T00:30:31;7.18;;;3.80;;
73793;SDS011;62123;52.518;10.528;2022-07-19T00:32:56;7.83;;;3.60;;
73793;SDS011;62123;52.518;10.528;2022-07-19T00:35:22;6.80;;;3.70;;
73793;SDS011;62123;52.518;10.528;2022-07-19T00:37:48;8.90;;;3.60;;
73793;SDS011;62123;52.518;10.528;2022-07-19T00:40:14;8.57;;;4.20;;
73793;SDS011;62123;52.518;10.528;2022-07-19T00:42:49;9.70;;;3.38;;
73793;SDS011;62123;52.518;10.528;2022-07-19T00:45:16;8.60;;;3.60;;
73793;SDS011;62123;52.518;10.528;2022-07-19T00:47:41;10.18;;;3.90;;
73793;SDS011;62123;52.518;10.528;2022-07-19T00:50:07;8.37;;;3.93;;
73793;SDS011;62123;52.518;10.528;2022-07-19T00:52:33;6.70;;;3.55;;
73793;SDS011;62123;52.518;10.528;2022-07-19T00:54:58;6.17;;;3.50;;
73793;SDS011;62123;52.518;10.528;2022-07-19T00:57:24;7.75;;;4.15;;
73793;SDS011;62123;52.518;10.528;2022-07-19T00:59:51;8.60;;;3.50;;
73793;SDS011;62123;52.518;10.528;2022-07-19T01:02:18;6.43;;;3.13;;
73793;SDS011;62123;52.518;10.528;2022-07-19T01:04:44;7.07;;;2.92;;
73793;SDS011;62123;52.518;10.528;2022-07-19T01:07:10;8.00;;;3.70;;
73793;SDS011;62123;52.518;10.528;2022-07-19T01:09:38;6.93;;;3.55;;
73793;SDS011;62123;52.518;10.528;2022-07-19T01:12:06;7.32;;;3.83;;
73793;SDS011;62123;52.518;10.528;2022-07-19T01:14:32;6.50;;;3.23;;
73793;SDS011;62123;52.518;10.528;2022-07-19T01:17:00;7.07;;;3.25;;
73793;SDS011;62123;52.518;10.528;2022-07-19T01:19:26;5.78;;;3.42;;
73793;SDS011;62123;52.518;10.528;2022-07-19T01:21:52;6.13;;;3.97;;
73793;SDS011;62123;52.518;10.528;2022-07-19T01:24:17;5.25;;;2.70;;
73793;SDS011;62123;52.518;10.528;2022-07-19T01:26:43;6.40;;;3.40;;
73793;SDS011;62123;52.518;10.528;2022-07-19T01:29:08;8.90;;;3.70;;
73793;SDS011;62123;52.518;10.528;2022-07-19T01:31:42;6.30;;;3.30;;
73793;SDS011;62123;52.518;10.528;2022-07-19T01:34:07;6.23;;;3.40;;
73793;SDS011;62123;52.518;10.528;2022-07-19T01:36:33;5.03;;;3.15;;
73793;SDS011;62123;52.518;10.528;2022-07-19T01:38:59;6.63;;;3.23;;
73793;SDS011;62123;52.518;10.528;2022-07-19T01:41:25;7.05;;;3.10;;
73793;SDS011;62123;52.518;10.528;2022-07-19T01:43:50;6.23;;;2.70;;
73793;SDS011;62123;52.518;10.528;2022-07-19T01:46:16;8.23;;;3.10;;
73793;SDS011;62123;52.518;10.528;2022-07-19T01:48:41;6.05;;;2.60;;
73793;SDS011;62123;52.518;10.528;2022-07-19T01:51:07;5.87;;;2.67;;
73793;SDS011;62123;52.518;10.528;2022-07-19T01:53:33;8.40;;;3.20;;
73793;SDS011;62123;52.518;10.528;2022-07-19T01:55:58;6.53;;;3.60;;
73793;SDS011;62123;52.518;10.528;2022-07-19T01:58:24;10.65;;;3.10;;
73793;SDS011;62123;52.518;10.528;2022-07-19T02:00:50;8.43;;;3.37;;
73793;SDS011;62123;52.518;10.528;2022-07-19T02:03:16;8.10;;;3.33;;
73793;SDS011;62123;52.518;10.528;2022-07-19T02:05:43;7.43;;;3.93;;
73793;SDS011;62123;52.518;10.528;2022-07-19T02:08:12;6.23;;;3.30;;
73793;SDS011;62123;52.518;10.528;2022-07-19T02:10:38;5.68;;;3.15;;
73793;SDS011;62123;52.518;10.528;2022-07-19T02:13:03;6.30;;;3.30;;
73793;SDS011;62123;52.518;10.528;2022-07-19T02:15:29;6.35;;;3.13;;
73793;SDS011;62123;52.518;10.528;2022-07-19T02:17:55;9.17;;;3.37;;
73793;SDS011;62123;52.518;10.528;2022-07-19T02:20:21;5.47;;;3.20;;
73793;SDS011;62123;52.518;10.528;2022-07-19T02:22:47;4.93;;;2.97;;
73793;SDS011;62123;52.518;10.528;2022-07-19T02:25:12;6.00;;;3.23;;
73793;SDS011;62123;52.518;10.528;2022-07-19T02:27:38;7.00;;;2.75;;
73793;SDS011;62123;52.518;10.528;2022-07-19T02:30:03;5.83;;;3.40;;
73793;SDS011;62123;52.518;10.528;2022-07-19T02:32:29;6.38;;;3.83;;
73793;SDS011;62123;52.518;10.528;2022-07-19T02:34:55;6.47;;;3.10;;
73793;SDS011;62123;52.518;10.528;2022-07-19T02:37:21;7.32;;;3.45;;
73793;SDS011;62123;52.518;10.528;2022-07-19T02:39:46;6.37;;;3.30;;
73793;SDS011;62123;52.518;10.528;2022-07-19T02:42:12;7.00;;;3.27;;
73793;SDS011;62123;52.518;10.528;2022-07-19T02:44:37;4.78;;;2.53;;
73793;SDS011;62123;52.518;10.528;2022-07-19T02:47:03;6.83;;;3.27;;
73793;SDS011;62123;52.518;10.528;2022-07-19T02:49:28;7.43;;;3.53;;
73793;SDS011;62123;52.518;10.528;2022-07-19T02:51:54;5.37;;;3.00;;
73793;SDS011;62123;52.518;10.528;2022-07-19T02:54:19;5.63;;;3.37;;
73793;SDS011;62123;52.518;10.528;2022-07-19T02:56:45;5.37;;;3.63;;
73793;SDS011;62123;52.518;10.528;2022-07-19T02:59:10;6.80;;;3.78;;
73793;SDS011;62123;52.518;10.528;2022-07-19T03:01:36;6.20;;;3.40;;
73793;SDS011;62123;52.518;10.528;2022-07-19T03:04:02;5.90;;;3.40;;
73793;SDS011;62123;52.518;10.528;2022-07-19T03:06:27;6.67;;;3.73;;
73793;SDS011;62123;52.518;10.528;2022-07-19T03:08:53;7.07;;;3.67;;
73793;SDS011;62123;52.518;10.528;2022-07-19T03:11:18;7.55;;;3.05;;
73793;SDS011;62123;52.518;10.528;2022-07-19T03:13:44;5.33;;;2.90;;
73793;SDS011;62123;52.518;10.528;2022-07-19T03:16:10;5.65;;;3.38;;
73793;SDS011;62123;52.518;10.528;2022-07-19T03:18:35;7.63;;;3.87;;
73793;SDS011;62123;52.518;10.528;2022-07-19T03:21:01;6.40;;;3.40;;
73793;SDS011;62123;52.518;10.528;2022-07-19T03:23:27;5.10;;;3.83;;
73793;SDS011;62123;52.518;10.528;2022-07-19T03:25:55;5.20;;;3.15;;
73793;SDS011;62123;52.518;10.528;2022-07-19T03:28:20;8.13;;;3.60;;
73793;SDS011;62123;52.518;10.528;2022-07-19T03:30:46;6.15;;;3.20;;
73793;SDS011;62123;52.518;10.528;2022-07-19T03:33:12;6.43;;;3.17;;
73793;SDS011;62123;52.518;10.528;2022-07-19T03:35:41;7.97;;;3.60;;
73793;SDS011;62123;52.518;10.528;2022-07-19T03:38:10;6.20;;;3.50;;
73793;SDS011;62123;52.518;10.528;2022-07-19T03:40:36;6.30;;;3.10;;
73793;SDS011;62123;52.518;10.528;2022-07-19T03:43:02;5.63;;;3.22;;
73793;SDS011;62123;52.518;10.528;2022-07-19T03:45:28;5.32;;;3.08;;
73793;SDS011;62123;52.518;10.528;2022-07-19T03:47:53;6.60;;;3.50;;
73793;SDS011;62123;52.518;10.528;2022-07-19T03:50:19;7.27;;;3.47;;
73793;SDS011;62123;52.518;10.528;2022-07-19T03:52:44;7.28;;;3.30;;
73793;SDS011;62123;52.518;10.528;2022-07-19T03:55:10;7.40;;;3.30;;
73793;SDS011;62123;52.518;10.528;2022-07-19T03:57:36;9.97;;;3.20;;
73793;SDS011;62123;52.518;10.528;2022-07-19T04:00:02;7.00;;;3.27;;
73793;SDS011;62123;52.518;10.528;2022-07-19T04:02:29;11.65;;;3.80;;
73793;SDS011;62123;52.518;10.528;2022-07-19T04:04:54;7.97;;;3.50;;
73793;SDS011;62123;52.518;10.528;2022-07-19T04:07:20;7.90;;;3.30;;
73793;SDS011;62123;52.518;10.528;2022-07-19T04:09:46;6.25;;;3.45;;
73793;SDS011;62123;52.518;10.528;2022-07-19T04:12:11;7.23;;;3.20;;
73793;SDS011;62123;52.518;10.528;2022-07-19T04:14:37;6.88;;;3.10;;
73793;SDS011;62123;52.518;10.528;2022-07-19T04:17:02;8.43;;;2.90;;
73793;SDS011;62123;52.518;10.528;2022-07-19T04:19:29;6.80;;;3.28;;
73793;SDS011;62123;52.518;10.528;2022-07-19T04:21:55;7.43;;;3.57;;
73793;SDS011;62123;52.518;10.528;2022-07-19T04:24:21;7.43;;;3.17;;
73793;SDS011;62123;52.518;10.528;2022-07-19T04:26:47;6.03;;;3.23;;
73793;SDS011;62123;52.518;10.528;2022-07-19T04:29:12;6.63;;;3.00;;
73793;SDS011;62123;52.518;10.528;2022-07-19T04:31:38;5.73;;;3.10;;
73793;SDS011;62123;52.518;10.528;2022-07-19T04:34:03;5.53;;;3.17;;
73793;SDS011;62123;52.518;10.528;2022-07-19T04:36:29;10.47;;;3.80;;
73793;SDS011;62123;52.518;10.528;2022-07-19T04:38:54;8.45;;;3.53;;
73793;SDS011;62123;52.518;10.528;2022-07-19T04:41:20;5.77;;;3.00;;
73793;SDS011;62123;52.518;10.528;2022-07-19T04:43:45;7.00;;;3.47;;
73793;SDS011;62123;52.518;10.528;2022-07-19T04:46:11;6.93;;;3.00;;
73793;SDS011;62123;52.518;10.528;2022-07-19T04:48:36;4.97;;;3.03;;
73793;SDS011;62123;52.518;10.528;2022-07-19T04:51:02;6.60;;;3.17;;
73793;SDS011;62123;52.518;10.528;2022-07-19T04:53:28;6.90;;;2.80;;
73793;SDS011;62123;52.518;10.528;2022-07-19T04:55:53;7.20;;;3.17;;
73793;SDS011;62123;52.518;10.528;2022-07-19T04:58:19;8.03;;;3.47;;
73793;SDS011;62123;52.518;10.528;2022-07-19T05:00:44;7.95;;;4.18;;
73793;SDS011;62123;52.518;10.528;2022-07-19T05:03:10;6.13;;;3.30;;
73793;SDS011;62123;52.518;10.528;2022-07-19T05:05:35;7.75;;;3.42;;
73793;SDS011;62123;52.518;10.528;2022-07-19T05:08:01;6.68;;;3.30;;
73793;SDS011;62123;52.518;10.528;2022-07-19T05:10:27;7.53;;;3.77;;
73793;SDS011;62123;52.518;10.528;2022-07-19T05:13:13;6.05;;;3.13;;
73793;SDS011;62123;52.518;10.528;2022-07-19T05:15:39;8.00;;;3.67;;
73793;SDS011;62123;52.518;10.528;2022-07-19T05:18:04;9.85;;;3.63;;
73793;SDS011;62123;52.518;10.528;2022-07-19T05:20:30;10.43;;;3.67;;
73793;SDS011;62123;52.518;10.528;2022-07-19T05:23:16;11.57;;;4.22;;
73793;SDS011;62123;52.518;10.528;2022-07-19T05:25:41;13.55;;;4.43;;
73793;SDS011;62123;52.518;10.528;2022-07-19T05:28:07;12.00;;;3.97;;
73793;SDS011;62123;52.518;10.528;2022-07-19T05:30:34;12.52;;;4.65;;
73793;SDS011;62123;52.518;10.528;2022-07-19T05:32:59;10.83;;;4.07;;
73793;SDS011;62123;52.518;10.528;2022-07-19T05:35:25;9.95;;;4.03;;
73793;SDS011;62123;52.518;10.528;2022-07-19T05:37:50;11.77;;;3.87;;
73793;SDS011;62123;52.518;10.528;2022-07-19T05:40:16;10.13;;;4.15;;
73793;SDS011;62123;52.518;10.528;2022-07-19T05:42:42;19.83;;;4.37;;
73793;SDS011;62123;52.518;10.528;2022-07-19T05:45:08;16.60;;;4.18;;
73793;SDS011;62123;52.518;10.528;2022-07-19T05:47:34;11.63;;;4.63;;
73793;SDS011;62123;52.518;10.528;2022-07-19T05:50:00;12.30;;;4.23;;
73793;SDS011;62123;52.518;10.528;2022-07-19T05:52:25;9.95;;;4.22;;
73793;SDS011;62123;52.518;10.528;2022-07-19T05:54:51;12.97;;;3.90;;
73793;SDS011;62123;52.518;10.528;2022-07-19T05:57:19;11.05;;;3.75;;
73793;SDS011;62123;52.518;10.528;2022-07-19T05:59:44;7.97;;;3.90;;
73793;SDS011;62123;52.518;10.528;2022-07-19T06:02:10;9.70;;;3.60;;
73793;SDS011;62123;52.518;10.528;2022-07-19T06:04:35;9.00;;;3.90;;
73793;SDS011;62123;52.518;10.528;2022-07-19T06:07:01;12.47;;;4.07;;
73793;SDS011;62123;52.518;10.528;2022-07-19T06:09:26;8.57;;;3.60;;
73793;SDS011;62123;52.518;10.528;2022-07-19T06:11:52;9.50;;;3.40;;
73793;SDS011;62123;52.518;10.528;2022-07-19T06:14:18;8.25;;;3.17;;
73793;SDS011;62123;52.518;10.528;2022-07-19T06:16:44;10.67;;;3.70;;
73793;SDS011;62123;52.518;10.528;2022-07-19T06:19:09;12.25;;;4.15;;
73793;SDS011;62123;52.518;10.528;2022-07-19T06:21:37;11.40;;;3.60;;
73793;SDS011;62123;52.518;10.528;2022-07-19T06:24:02;11.63;;;3.65;;
73793;SDS011;62123;52.518;10.528;2022-07-19T06:26:28;7.18;;;2.85;;
73793;SDS011;62123;52.518;10.528;2022-07-19T06:28:54;9.50;;;3.53;;
73793;SDS011;62123;52.518;10.528;2022-07-19T06:31:20;7.40;;;3.58;;
73793;SDS011;62123;52.518;10.528;2022-07-19T06:33:46;10.33;;;3.63;;
73793;SDS011;62123;52.518;10.528;2022-07-19T06:36:12;8.75;;;3.08;;
73793;SDS011;62123;52.518;10.528;2022-07-19T06:38:39;8.68;;;3.50;;
73793;SDS011;62123;52.518;10.528;2022-07-19T06:41:06;7.43;;;3.13;;
73793;SDS011;62123;52.518;10.528;2022-07-19T06:43:31;10.63;;;3.50;;
73793;SDS011;62123;52.518;10.528;2022-07-19T06:45:57;6.80;;;3.37;;
73793;SDS011;62123;52.518;10.528;2022-07-19T06:48:23;7.63;;;3.40;;
73793;SDS011;62123;52.518;10.528;2022-07-19T06:50:51;6.57;;;3.53;;
73793;SDS011;62123;52.518;10.528;2022-07-19T06:53:17;8.32;;;3.90;;
73793;SDS011;62123;52.518;10.528;2022-07-19T06:55:42;6.33;;;3.57;;
73793;SDS011;62123;52.518;10.528;2022-07-19T06:58:08;8.23;;;3.60;;
73793;SDS011;62123;52.518;10.528;2022-07-19T07:00:34;6.10;;;3.13;;
73793;SDS011;62123;52.518;10.528;2022-07-19T07:03:00;7.82;;;2.97;;
73793;SDS011;62123;52.518;10.528;2022-07-19T07:05:25;6.45;;;3.75;;
73793;SDS011;62123;52.518;10.528;2022-07-19T07:07:51;5.80;;;3.40;;
73793;SDS011;62123;52.518;10.528;2022-07-19T07:10:18;8.98;;;3.53;;
73793;SDS011;62123;52.518;10.528;2022-07-19T07:12:44;7.03;;;3.43;;
73793;SDS011;62123;52.518;10.528;2022-07-19T07:15:09;10.57;;;3.35;;
73793;SDS011;62123;52.518;10.528;2022-07-19T07:17:36;6.17;;;2.53;;
73793;SDS011;62123;52.518;10.528;2022-07-19T07:20:03;5.80;;;3.00;;
73793;SDS011;62123;52.518;10.528;2022-07-19T07:22:49;8.13;;;3.28;;
73793;SDS011;62123;52.518;10.528;2022-07-19T07:25:15;8.25;;;3.65;;
73793;SDS011;62123;52.518;10.528;2022-07-19T07:27:40;7.93;;;3.57;;
73793;SDS011;62123;52.518;10.528;2022-07-19T07:30:07;7.07;;;3.17;;
73793;SDS011;62123;52.518;10.528;2022-07-19T07:32:33;4.95;;;3.20;;
73793;SDS011;62123;52.518;10.528;2022-07-19T07:34:59;8.65;;;3.05;;
73793;SDS011;62123;52.518;10.528;2022-07-19T07:37:25;6.63;;;3.27;;
73793;SDS011;62123;52.518;10.528;2022-07-19T07:39:51;6.43;;;2.97;;
73793;SDS011;62123;52.518;10.528;2022-07-19T07:42:17;6.43;;;3.10;;
73793;SDS011;62123;52.518;10.528;2022-07-19T07:44:42;5.73;;;3.43;;
73793;SDS011;62123;52.518;10.528;2022-07-19T07:47:08;7.23;;;2.97;;
73793;SDS011;62123;52.518;10.528;2022-07-19T07:49:53;6.55;;;3.15;;
73793;SDS011;62123;52.518;10.528;2022-07-19T07:52:19;5.27;;;2.90;;
73793;SDS011;62123;52.518;10.528;2022-07-19T07:54:45;5.80;;;2.50;;
73793;SDS011;62123;52.518;10.528;2022-07-19T07:57:10;7.57;;;3.23;;
73793;SDS011;62123;52.518;10.528;2022-07-19T07:59:36;5.10;;;2.67;;
73793;SDS011;62123;52.518;10.528;2022-07-19T08:02:01;4.73;;;2.40;;
73793;SDS011;62123;52.518;10.528;2022-07-19T08:04:27;6.18;;;2.80;;
73793;SDS011;62123;52.518;10.528;2022-07-19T08:06:53;6.47;;;2.70;;
73793;SDS011;62123;52.518;10.528;2022-07-19T08:09:19;5.85;;;3.15;;
73793;SDS011;62123;52.518;10.528;2022-07-19T08:11:45;6.78;;;3.35;;
73793;SDS011;62123;52.518;10.528;2022-07-19T08:14:10;5.93;;;3.00;;
73793;SDS011;62123;52.518;10.528;2022-07-19T08:16:36;7.97;;;2.67;;
73793;SDS011;62123;52.518;10.528;2022-07-19T08:19:01;5.30;;;2.97;;
73793;SDS011;62123;52.518;10.528;2022-07-19T08:21:27;8.23;;;3.00;;
73793;SDS011;62123;52.518;10.528;2022-07-19T08:23:53;4.80;;;2.57;;
73793;SDS011;62123;52.518;10.528;2022-07-19T08:26:19;7.13;;;2.88;;
73793;SDS011;62123;52.518;10.528;2022-07-19T08:28:45;6.82;;;2.97;;
73793;SDS011;62123;52.518;10.528;2022-07-19T08:31:13;5.93;;;3.13;;
73793;SDS011;62123;52.518;10.528;2022-07-19T08:33:39;6.95;;;3.33;;
73793;SDS011;62123;52.518;10.528;2022-07-19T08:36:05;6.10;;;3.60;;
73793;SDS011;62123;52.518;10.528;2022-07-19T08:38:31;7.57;;;3.33;;
73793;SDS011;62123;52.518;10.528;2022-07-19T08:40:57;6.35;;;3.55;;
73793;SDS011;62123;52.518;10.528;2022-07-19T08:43:25;7.97;;;4.07;;
73793;SDS011;62123;52.518;10.528;2022-07-19T08:45:51;9.67;;;3.70;;
73793;SDS011;62123;52.518;10.528;2022-07-19T08:48:17;9.75;;;4.05;;
73793;SDS011;62123;52.518;10.528;2022-07-19T08:50:43;10.43;;;4.53;;
73793;SDS011;62123;52.518;10.528;2022-07-19T08:53:09;9.17;;;4.27;;
73793;SDS011;62123;52.518;10.528;2022-07-19T08:55:35;8.90;;;4.10;;
73793;SDS011;62123;52.518;10.528;2022-07-19T08:58:01;10.53;;;4.30;;
73793;SDS011;62123;52.518;10.528;2022-07-19T09:00:27;9.00;;;4.85;;
73793;SDS011;62123;52.518;10.528;2022-07-19T09:02:58;8.20;;;3.60;;
73793;SDS011;62123;52.518;10.528;2022-07-19T09:05:25;11.00;;;3.90;;
73793;SDS011;62123;52.518;10.528;2022-07-19T09:08:01;9.05;;;3.92;;
73793;SDS011;62123;52.518;10.528;2022-07-19T09:10:31;8.10;;;3.80;;
73793;SDS011;62123;52.518;10.528;2022-07-19T09:13:01;8.75;;;3.83;;
73793;SDS011;62123;52.518;10.528;2022-07-19T09:15:41;11.57;;;4.00;;
73793;SDS011;62123;52.518;10.528;2022-07-19T09:18:41;8.27;;;3.83;;
73793;SDS011;62123;52.518;10.528;2022-07-19T09:21:05;9.10;;;3.40;;
73793;SDS011;62123;52.518;10.528;2022-07-19T09:23:32;7.55;;;3.83;;
73793;SDS011;62123;52.518;10.528;2022-07-19T09:26:00;8.10;;;3.13;;
73793;SDS011;62123;52.518;10.528;2022-07-19T09:28:27;7.90;;;3.13;;
73793;SDS011;62123;52.518;10.528;2022-07-19T09:30:57;7.38;;;3.53;;
73793;SDS011;62123;52.518;10.528;2022-07-19T09:33:28;6.17;;;2.70;;
73793;SDS011;62123;52.518;10.528;2022-07-19T09:35:55;6.35;;;3.03;;
73793;SDS011;62123;52.518;10.528;2022-07-19T09:38:26;6.88;;;3.03;;
73793;SDS011;62123;52.518;10.528;2022-07-19T09:41:07;7.72;;;3.10;;
73793;SDS011;62123;52.518;10.528;2022-07-19T09:43:49;8.37;;;2.97;;
73793;SDS011;62123;52.518;10.528;2022-07-19T09:46:52;7.30;;;3.75;;
73793;SDS011;62123;52.518;10.528;2022-07-19T09:49:14;7.93;;;3.22;;
73793;SDS011;62123;52.518;10.528;2022-07-19T09:51:42;7.50;;;3.03;;
73793;SDS011;62123;52.518;10.528;2022-07-19T09:54:10;7.38;;;3.08;;
73793;SDS011;62123;52.518;10.528;2022-07-19T09:56:38;8.38;;;2.92;;
73793;SDS011;62123;52.518;10.528;2022-07-19T09:59:05;6.82;;;3.08;;
73793;SDS011;62123;52.518;10.528;2022-07-19T10:01:31;7.20;;;3.20;;
73793;SDS011;62123;52.518;10.528;2022-07-19T10:04:19;8.25;;;2.90;;
73793;SDS011;62123;52.518;10.528;2022-07-19T10:06:46;8.68;;;2.85;;
73793;SDS011;62123;52.518;10.528;2022-07-19T10:09:14;6.93;;;2.90;;
73793;SDS011;62123;52.518;10.528;2022-07-19T10:11:43;6.17;;;2.80;;
73793;SDS011;62123;52.518;10.528;2022-07-19T10:14:10;6.55;;;2.58;;
73793;SDS011;62123;52.518;10.528;2022-07-19T10:17:01;7.07;;;3.05;;
73793;SDS011;62123;52.518;10.528;2022-07-19T10:21:59;6.50;;;2.70;;
73793;SDS011;62123;52.518;10.528;2022-07-19T10:27:10;5.80;;;2.75;;
73793;SDS011;62123;52.518;10.528;2022-07-19T10:29:37;9.77;;;3.10;;
73793;SDS011;62123;52.518;10.528;2022-07-19T10:32:07;6.30;;;2.63;;
73793;SDS011;62123;52.518;10.528;2022-07-19T10:34:33;5.97;;;2.80;;
73793;SDS011;62123;52.518;10.528;2022-07-19T10:36:59;6.90;;;2.83;;
73793;SDS011;62123;52.518;10.528;2022-07-19T10:39:26;6.05;;;2.88;;
73793;SDS011;62123;52.518;10.528;2022-07-19T10:47:20;6.30;;;3.30;;
73793;SDS011;62123;52.518;10.528;2022-07-19T10:49:47;8.35;;;2.42;;
73793;SDS011;62123;52.518;10.528;2022-07-19T10:57:51;6.28;;;2.90;;
73793;SDS011;62123;52.518;10.528;2022-07-19T11:03:26;4.50;;;2.40;;
73793;SDS011;62123;52.518;10.528;2022-07-19T11:06:00;5.38;;;2.50;;
73793;SDS011;62123;52.518;10.528;2022-07-19T11:08:37;5.30;;;2.45;;
73793;SDS011;62123;52.518;10.528;2022-07-19T11:11:08;5.13;;;2.37;;
73793;SDS011;62123;52.518;10.528;2022-07-19T11:13:37;4.97;;;2.77;;
73793;SDS011;62123;52.518;10.528;2022-07-19T11:16:04;7.25;;;3.47;;
73793;SDS011;62123;52.518;10.528;2022-07-19T11:18:50;6.00;;;3.00;;
73793;SDS011;62123;52.518;10.528;2022-07-19T11:21:16;6.00;;;2.93;;
73793;SDS011;62123;52.518;10.528;2022-07-19T11:23:42;5.13;;;2.40;;
73793;SDS011;62123;52.518;10.528;2022-07-19T11:28:35;7.63;;;2.60;;
73793;SDS011;62123;52.518;10.528;2022-07-19T11:31:21;5.78;;;2.30;;
73793;SDS011;62123;52.518;10.528;2022-07-19T11:33:48;4.20;;;2.35;;
73793;SDS011;62123;52.518;10.528;2022-07-19T11:36:15;4.17;;;2.37;;
73793;SDS011;62123;52.518;10.528;2022-07-19T11:41:22;5.15;;;2.53;;
73793;SDS011;62123;52.518;10.528;2022-07-19T11:43:52;4.55;;;2.40;;
73793;SDS011;62123;52.518;10.528;2022-07-19T11:46:19;4.20;;;2.27;;
73793;SDS011;62123;52.518;10.528;2022-07-19T11:48:49;4.90;;;2.20;;
73793;SDS011;62123;52.518;10.528;2022-07-19T11:51:15;4.80;;;2.50;;
73793;SDS011;62123;52.518;10.528;2022-07-19T11:53:41;5.40;;;2.57;;
73793;SDS011;62123;52.518;10.528;2022-07-19T11:56:20;5.60;;;2.50;;
73793;SDS011;62123;52.518;10.528;2022-07-19T11:58:47;5.60;;;2.40;;
73793;SDS011;62123;52.518;10.528;2022-07-19T12:01:13;4.90;;;2.78;;
73793;SDS011;62123;52.518;10.528;2022-07-19T12:03:39;6.33;;;2.27;;
73793;SDS011;62123;52.518;10.528;2022-07-19T12:06:05;4.47;;;2.03;;
73793;SDS011;62123;52.518;10.528;2022-07-19T12:11:18;4.55;;;2.28;;
73793;SDS011;62123;52.518;10.528;2022-07-19T12:13:46;4.63;;;2.25;;
73793;SDS011;62123;52.518;10.528;2022-07-19T12:16:12;4.93;;;2.30;;
73793;SDS011;62123;52.518;10.528;2022-07-19T12:18:43;4.30;;;2.20;;
73793;SDS011;62123;52.518;10.528;2022-07-19T12:21:21;7.70;;;2.30;;
73793;SDS011;62123;52.518;10.528;2022-07-19T12:26:41;5.68;;;2.33;;
73793;SDS011;62123;52.518;10.528;2022-07-19T12:29:20;4.28;;;2.13;;
73793;SDS011;62123;52.518;10.528;2022-07-19T12:31:47;4.43;;;2.47;;
73793;SDS011;62123;52.518;10.528;2022-07-19T12:34:14;5.10;;;2.40;;
73793;SDS011;62123;52.518;10.528;2022-07-19T12:36:40;4.38;;;3.05;;
73793;SDS011;62123;52.518;10.528;2022-07-19T12:39:16;4.30;;;2.40;;
73793;SDS011;62123;52.518;10.528;2022-07-19T12:41:55;5.13;;;2.17;;
73793;SDS011;62123;52.518;10.528;2022-07-19T12:44:23;3.97;;;1.80;;
73793;SDS011;62123;52.518;10.528;2022-07-19T12:46:48;3.60;;;1.80;;
73793;SDS011;62123;52.518;10.528;2022-07-19T12:49:14;5.35;;;2.20;;
73793;SDS011;62123;52.518;10.528;2022-07-19T12:51:39;5.23;;;2.13;;
73793;SDS011;62123;52.518;10.528;2022-07-19T12:54:09;4.70;;;2.40;;
73793;SDS011;62123;52.518;10.528;2022-07-19T12:56:35;4.60;;;1.98;;
73793;SDS011;62123;52.518;10.528;2022-07-19T12:59:01;3.80;;;1.97;;
73793;SDS011;62123;52.518;10.528;2022-07-19T13:01:45;4.22;;;2.15;;
73793;SDS011;62123;52.518;10.528;2022-07-19T13:04:10;3.73;;;1.83;;
73793;SDS011;62123;52.518;10.528;2022-07-19T13:06:36;3.70;;;2.28;;
73793;SDS011;62123;52.518;10.528;2022-07-19T13:09:01;4.33;;;1.77;;
73793;SDS011;62123;52.518;10.528;2022-07-19T13:11:27;4.30;;;1.92;;
73793;SDS011;62123;52.518;10.528;2022-07-19T13:13:53;5.53;;;1.70;;
73793;SDS011;62123;52.518;10.528;2022-07-19T13:16:19;3.80;;;2.05;;
73793;SDS011;62123;52.518;10.528;2022-07-19T13:18:47;3.80;;;2.22;;
73793;SDS011;62123;52.518;10.528;2022-07-19T13:21:15;4.07;;;2.10;;
73793;SDS011;62123;52.518;10.528;2022-07-19T13:23:42;4.87;;;2.10;;
73793;SDS011;62123;52.518;10.528;2022-07-19T13:26:08;5.05;;;2.30;;
73793;SDS011;62123;52.518;10.528;2022-07-19T13:28:34;4.83;;;2.40;;
73793;SDS011;62123;52.518;10.528;2022-07-19T13:31:01;4.30;;;2.43;;
73793;SDS011;62123;52.518;10.528;2022-07-19T13:33:26;4.53;;;2.45;;
73793;SDS011;62123;52.518;10.528;2022-07-19T13:35:52;4.80;;;1.90;;
73793;SDS011;62123;52.518;10.528;2022-07-19T13:38:18;3.83;;;2.03;;
73793;SDS011;62123;52.518;10.528;2022-07-19T13:40:43;4.20;;;1.80;;
73793;SDS011;62123;52.518;10.528;2022-07-19T13:43:30;4.28;;;2.00;;
73793;SDS011;62123;52.518;10.528;2022-07-19T13:45:55;4.03;;;1.80;;
73793;SDS011;62123;52.518;10.528;2022-07-19T13:48:21;4.40;;;2.20;;
73793;SDS011;62123;52.518;10.528;2022-07-19T13:50:47;4.63;;;2.65;;
73793;SDS011;62123;52.518;10.528;2022-07-19T13:53:12;3.50;;;1.97;;
73793;SDS011;62123;52.518;10.528;2022-07-19T13:55:38;4.40;;;2.07;;
73793;SDS011;62123;52.518;10.528;2022-07-19T13:58:03;3.80;;;2.10;;
73793;SDS011;62123;52.518;10.528;2022-07-19T14:00:32;3.50;;;1.70;;
73793;SDS011;62123;52.518;10.528;2022-07-19T14:02:58;3.80;;;1.60;;
73793;SDS011;62123;52.518;10.528;2022-07-19T14:05:23;3.60;;;1.75;;
73793;SDS011;62123;52.518;10.528;2022-07-19T14:07:49;4.13;;;1.90;;
73793;SDS011;62123;52.518;10.528;2022-07-19T14:10:15;4.27;;;2.20;;
73793;SDS011;62123;52.518;10.528;2022-07-19T14:12:40;4.63;;;1.77;;
73793;SDS011;62123;52.518;10.528;2022-07-19T14:15:06;4.20;;;2.23;;
73793;SDS011;62123;52.518;10.528;2022-07-19T14:17:32;3.53;;;1.83;;
73793;SDS011;62123;52.518;10.528;2022-07-19T14:19:57;5.30;;;1.90;;
73793;SDS011;62123;52.518;10.528;2022-07-19T14:22:23;3.60;;;1.73;;
73793;SDS011;62123;52.518;10.528;2022-07-19T14:24:49;3.60;;;1.90;;
73793;SDS011;62123;52.518;10.528;2022-07-19T14:27:35;4.03;;;1.83;;
73793;SDS011;62123;52.518;10.528;2022-07-19T14:30:01;4.10;;;1.95;;
73793;SDS011;62123;52.518;10.528;2022-07-19T14:32:26;4.17;;;1.83;;
73793;SDS011;62123;52.518;10.528;2022-07-19T14:34:52;3.67;;;2.00;;
73793;SDS011;62123;52.518;10.528;2022-07-19T14:37:17;3.80;;;1.90;;
73793;SDS011;62123;52.518;10.528;2022-07-19T14:39:43;4.33;;;1.90;;
73793;SDS011;62123;52.518;10.528;2022-07-19T14:42:08;4.55;;;1.83;;
73793;SDS011;62123;52.518;10.528;2022-07-19T14:44:34;4.20;;;1.60;;
73793;SDS011;62123;52.518;10.528;2022-07-19T14:47:00;3.87;;;1.87;;
73793;SDS011;62123;52.518;10.528;2022-07-19T14:49:28;3.50;;;2.03;;
73793;SDS011;62123;52.518;10.528;2022-07-19T14:51:53;4.15;;;2.10;;
73793;SDS011;62123;52.518;10.528;2022-07-19T14:54:22;3.90;;;2.07;;
73793;SDS011;62123;52.518;10.528;2022-07-19T14:56:48;3.60;;;2.22;;
73793;SDS011;62123;52.518;10.528;2022-07-19T14:59:13;4.50;;;2.00;;
73793;SDS011;62123;52.518;10.528;2022-07-19T15:01:39;4.60;;;2.38;;
73793;SDS011;62123;52.518;10.528;2022-07-19T15:04:05;3.70;;;2.07;;